sensor_id;sensor_type;location;lat;lon;timestamp;P1;durP1;ratioP1;P2;durP2;ratioP2
75356;SDS011;63946;51.986;5.930;2023-05-10T04:44:14;33.88;;;18.13;;
75356;SDS011;63946;51.986;5.930;2023-05-10T04:46:43;31.00;;;17.77;;
75356;SDS011;63946;51.986;5.930;2023-05-10T04:49:12;39.10;;;20.52;;
75356;SDS011;63946;51.986;5.930;2023-05-10T04:51:40;35.92;;;18.67;;
75356;SDS011;63946;51.986;5.930;2023-05-10T04:54:09;40.47;;;20.17;;
75356;SDS011;63946;51.986;5.930;2023-05-10T04:56:38;37.42;;;19.70;;
75356;SDS011;63946;51.986;5.930;2023-05-10T04:59:06;33.55;;;19.45;;
75356;SDS011;63946;51.986;5.930;2023-05-10T05:01:36;35.85;;;19.00;;
75356;SDS011;63946;51.986;5.930;2023-05-10T05:04:04;34.38;;;18.60;;
75356;SDS011;63946;51.986;5.930;2023-05-10T05:06:33;36.47;;;19.63;;
75356;SDS011;63946;51.986;5.930;2023-05-10T05:09:02;32.75;;;17.98;;
75356;SDS011;63946;51.986;5.930;2023-05-10T05:11:30;31.55;;;18.20;;
75356;SDS011;63946;51.986;5.930;2023-05-10T05:13:59;28.80;;;17.13;;
75356;SDS011;63946;51.986;5.930;2023-05-10T05:16:30;27.48;;;16.73;;
75356;SDS011;63946;51.986;5.930;2023-05-10T05:18:59;34.17;;;19.48;;
75356;SDS011;63946;51.986;5.930;2023-05-10T05:21:28;28.33;;;16.60;;
75356;SDS011;63946;51.986;5.930;2023-05-10T05:23:58;29.25;;;18.63;;
75356;SDS011;63946;51.986;5.930;2023-05-10T05:26:26;33.63;;;17.55;;
75356;SDS011;63946;51.986;5.930;2023-05-10T05:28:55;40.55;;;20.08;;
75356;SDS011;63946;51.986;5.930;2023-05-10T05:31:24;29.17;;;17.15;;
75356;SDS011;63946;51.986;5.930;2023-05-10T05:33:52;41.28;;;21.58;;
75356;SDS011;63946;51.986;5.930;2023-05-10T05:36:21;36.58;;;18.65;;
75356;SDS011;63946;51.986;5.930;2023-05-10T05:38:50;30.25;;;16.80;;
75356;SDS011;63946;51.986;5.930;2023-05-10T05:41:19;32.15;;;18.35;;
75356;SDS011;63946;51.986;5.930;2023-05-10T05:43:49;30.65;;;16.73;;
75356;SDS011;63946;51.986;5.930;2023-05-10T05:46:18;32.70;;;17.58;;
75356;SDS011;63946;51.986;5.930;2023-05-10T05:48:46;29.45;;;17.27;;
75356;SDS011;63946;51.986;5.930;2023-05-10T05:51:15;25.88;;;15.35;;
75356;SDS011;63946;51.986;5.930;2023-05-10T05:53:44;26.95;;;16.13;;
75356;SDS011;63946;51.986;5.930;2023-05-10T05:56:13;28.27;;;16.55;;
75356;SDS011;63946;51.986;5.930;2023-05-10T05:58:43;30.33;;;16.33;;
75356;SDS011;63946;51.986;5.930;2023-05-10T06:01:13;30.25;;;17.23;;
75356;SDS011;63946;51.986;5.930;2023-05-10T06:03:42;32.10;;;17.95;;
75356;SDS011;63946;51.986;5.930;2023-05-10T06:06:10;32.88;;;16.15;;
75356;SDS011;63946;51.986;5.930;2023-05-10T06:08:39;37.58;;;18.63;;
75356;SDS011;63946;51.986;5.930;2023-05-10T06:11:08;29.70;;;17.20;;
75356;SDS011;63946;51.986;5.930;2023-05-10T06:13:36;33.22;;;18.30;;
75356;SDS011;63946;51.986;5.930;2023-05-10T06:16:05;30.05;;;17.42;;
75356;SDS011;63946;51.986;5.930;2023-05-10T06:18:34;33.60;;;17.10;;
75356;SDS011;63946;51.986;5.930;2023-05-10T06:21:03;33.97;;;17.67;;
75356;SDS011;63946;51.986;5.930;2023-05-10T06:23:32;28.65;;;16.15;;
75356;SDS011;63946;51.986;5.930;2023-05-10T06:26:01;34.95;;;19.17;;
75356;SDS011;63946;51.986;5.930;2023-05-10T06:28:29;33.65;;;18.23;;
75356;SDS011;63946;51.986;5.930;2023-05-10T06:30:59;33.97;;;16.88;;
75356;SDS011;63946;51.986;5.930;2023-05-10T06:33:28;35.88;;;17.75;;
75356;SDS011;63946;51.986;5.930;2023-05-10T06:35:56;33.53;;;18.42;;
75356;SDS011;63946;51.986;5.930;2023-05-10T06:38:25;39.95;;;19.45;;
75356;SDS011;63946;51.986;5.930;2023-05-10T06:40:54;38.15;;;19.65;;
75356;SDS011;63946;51.986;5.930;2023-05-10T06:43:23;33.58;;;17.65;;
75356;SDS011;63946;51.986;5.930;2023-05-10T06:45:54;36.28;;;18.95;;
75356;SDS011;63946;51.986;5.930;2023-05-10T06:48:22;33.22;;;19.23;;
75356;SDS011;63946;51.986;5.930;2023-05-10T06:50:51;37.15;;;19.27;;
75356;SDS011;63946;51.986;5.930;2023-05-10T06:53:22;36.97;;;17.85;;
75356;SDS011;63946;51.986;5.930;2023-05-10T06:55:51;36.85;;;18.30;;
75356;SDS011;63946;51.986;5.930;2023-05-10T06:58:19;34.60;;;18.13;;
75356;SDS011;63946;51.986;5.930;2023-05-10T07:00:48;37.55;;;18.88;;
75356;SDS011;63946;51.986;5.930;2023-05-10T07:03:17;35.42;;;19.42;;
75356;SDS011;63946;51.986;5.930;2023-05-10T07:05:46;35.15;;;19.55;;
75356;SDS011;63946;51.986;5.930;2023-05-10T07:08:14;31.83;;;17.80;;
75356;SDS011;63946;51.986;5.930;2023-05-10T07:10:43;37.47;;;20.40;;
75356;SDS011;63946;51.986;5.930;2023-05-10T07:13:12;36.83;;;19.17;;
75356;SDS011;63946;51.986;5.930;2023-05-10T07:15:41;36.97;;;20.33;;
75356;SDS011;63946;51.986;5.930;2023-05-10T07:18:10;32.28;;;18.50;;
75356;SDS011;63946;51.986;5.930;2023-05-10T07:20:42;27.75;;;17.83;;
75356;SDS011;63946;51.986;5.930;2023-05-10T07:23:10;36.40;;;19.85;;
75356;SDS011;63946;51.986;5.930;2023-05-10T07:25:41;35.22;;;18.73;;
75356;SDS011;63946;51.986;5.930;2023-05-10T07:28:09;34.67;;;19.65;;
75356;SDS011;63946;51.986;5.930;2023-05-10T07:30:38;34.63;;;19.77;;
75356;SDS011;63946;51.986;5.930;2023-05-10T07:33:08;36.08;;;21.25;;
75356;SDS011;63946;51.986;5.930;2023-05-10T07:35:37;36.03;;;18.75;;
75356;SDS011;63946;51.986;5.930;2023-05-10T07:38:07;33.28;;;17.70;;
75356;SDS011;63946;51.986;5.930;2023-05-10T07:40:36;41.00;;;20.35;;
75356;SDS011;63946;51.986;5.930;2023-05-10T07:43:05;42.53;;;21.25;;
75356;SDS011;63946;51.986;5.930;2023-05-10T07:45:34;29.42;;;17.23;;
75356;SDS011;63946;51.986;5.930;2023-05-10T07:48:03;31.40;;;18.75;;
75356;SDS011;63946;51.986;5.930;2023-05-10T07:50:32;34.28;;;19.20;;
75356;SDS011;63946;51.986;5.930;2023-05-10T07:53:00;35.13;;;18.40;;
75356;SDS011;63946;51.986;5.930;2023-05-10T07:55:29;29.95;;;16.15;;
75356;SDS011;63946;51.986;5.930;2023-05-10T07:57:58;25.98;;;16.15;;
75356;SDS011;63946;51.986;5.930;2023-05-10T08:00:29;37.17;;;19.65;;
75356;SDS011;63946;51.986;5.930;2023-05-10T08:02:58;38.03;;;19.73;;
75356;SDS011;63946;51.986;5.930;2023-05-10T08:05:26;35.53;;;19.85;;
75356;SDS011;63946;51.986;5.930;2023-05-10T08:07:55;29.15;;;16.77;;
75356;SDS011;63946;51.986;5.930;2023-05-10T08:10:25;33.75;;;17.80;;
75356;SDS011;63946;51.986;5.930;2023-05-10T08:12:53;28.13;;;18.58;;
75356;SDS011;63946;51.986;5.930;2023-05-10T08:15:24;34.00;;;17.45;;
75356;SDS011;63946;51.986;5.930;2023-05-10T08:17:53;34.05;;;18.58;;
75356;SDS011;63946;51.986;5.930;2023-05-10T08:20:22;34.15;;;16.20;;
75356;SDS011;63946;51.986;5.930;2023-05-10T08:22:50;32.35;;;16.60;;
75356;SDS011;63946;51.986;5.930;2023-05-10T08:25:19;31.63;;;15.32;;
75356;SDS011;63946;51.986;5.930;2023-05-10T08:27:48;34.20;;;17.25;;
75356;SDS011;63946;51.986;5.930;2023-05-10T08:30:17;35.08;;;19.10;;
75356;SDS011;63946;51.986;5.930;2023-05-10T08:32:45;28.92;;;17.27;;
75356;SDS011;63946;51.986;5.930;2023-05-10T08:35:15;34.72;;;18.13;;
75356;SDS011;63946;51.986;5.930;2023-05-10T08:37:44;30.48;;;17.33;;
75356;SDS011;63946;51.986;5.930;2023-05-10T08:40:13;31.92;;;17.60;;
75356;SDS011;63946;51.986;5.930;2023-05-10T08:42:47;28.02;;;16.40;;
75356;SDS011;63946;51.986;5.930;2023-05-10T08:45:23;32.72;;;17.25;;
75356;SDS011;63946;51.986;5.930;2023-05-10T08:47:56;28.52;;;15.98;;
75356;SDS011;63946;51.986;5.930;2023-05-10T08:50:26;25.45;;;15.07;;
75356;SDS011;63946;51.986;5.930;2023-05-10T08:52:55;25.88;;;14.30;;
75356;SDS011;63946;51.986;5.930;2023-05-10T08:55:27;24.92;;;14.65;;
75356;SDS011;63946;51.986;5.930;2023-05-10T08:57:56;24.30;;;14.52;;
75356;SDS011;63946;51.986;5.930;2023-05-10T09:00:26;24.50;;;13.60;;
75356;SDS011;63946;51.986;5.930;2023-05-10T09:02:57;19.08;;;11.88;;
75356;SDS011;63946;51.986;5.930;2023-05-10T09:05:30;16.17;;;10.80;;
75356;SDS011;63946;51.986;5.930;2023-05-10T09:07:59;18.23;;;10.90;;
75356;SDS011;63946;51.986;5.930;2023-05-10T09:10:28;18.35;;;10.68;;
75356;SDS011;63946;51.986;5.930;2023-05-10T09:12:58;23.45;;;12.75;;
75356;SDS011;63946;51.986;5.930;2023-05-10T09:15:27;22.50;;;11.23;;
75356;SDS011;63946;51.986;5.930;2023-05-10T09:17:56;20.70;;;11.32;;
75356;SDS011;63946;51.986;5.930;2023-05-10T09:20:27;16.73;;;10.30;;
75356;SDS011;63946;51.986;5.930;2023-05-10T09:22:56;15.73;;;9.63;;
75356;SDS011;63946;51.986;5.930;2023-05-10T09:25:25;19.38;;;11.10;;
75356;SDS011;63946;51.986;5.930;2023-05-10T09:27:54;15.20;;;9.23;;
75356;SDS011;63946;51.986;5.930;2023-05-10T09:30:24;12.38;;;8.63;;
75356;SDS011;63946;51.986;5.930;2023-05-10T09:32:53;10.32;;;6.57;;
75356;SDS011;63946;51.986;5.930;2023-05-10T09:35:24;12.82;;;7.45;;
75356;SDS011;63946;51.986;5.930;2023-05-10T09:37:56;11.18;;;6.97;;
75356;SDS011;63946;51.986;5.930;2023-05-10T09:40:27;13.13;;;7.25;;
75356;SDS011;63946;51.986;5.930;2023-05-10T09:45:31;8.95;;;5.55;;
75356;SDS011;63946;51.986;5.930;2023-05-10T09:48:01;10.77;;;7.15;;
75356;SDS011;63946;51.986;5.930;2023-05-10T09:50:30;10.55;;;7.43;;
75356;SDS011;63946;51.986;5.930;2023-05-10T09:53:00;10.10;;;6.03;;
75356;SDS011;63946;51.986;5.930;2023-05-10T09:58:15;10.02;;;6.20;;
75356;SDS011;63946;51.986;5.930;2023-05-10T10:00:44;10.55;;;6.53;;
75356;SDS011;63946;51.986;5.930;2023-05-10T10:03:17;9.82;;;6.85;;
75356;SDS011;63946;51.986;5.930;2023-05-10T10:05:48;9.73;;;5.95;;
75356;SDS011;63946;51.986;5.930;2023-05-10T10:08:18;10.60;;;6.18;;
75356;SDS011;63946;51.986;5.930;2023-05-10T10:10:47;10.13;;;7.03;;
75356;SDS011;63946;51.986;5.930;2023-05-10T10:13:16;9.68;;;6.63;;
75356;SDS011;63946;51.986;5.930;2023-05-10T10:15:45;11.18;;;6.72;;
75356;SDS011;63946;51.986;5.930;2023-05-10T10:18:16;9.10;;;6.55;;
75356;SDS011;63946;51.986;5.930;2023-05-10T10:20:49;12.93;;;6.82;;
75356;SDS011;63946;51.986;5.930;2023-05-10T10:23:22;11.50;;;7.43;;
75356;SDS011;63946;51.986;5.930;2023-05-10T10:25:51;11.43;;;6.50;;
75356;SDS011;63946;51.986;5.930;2023-05-10T10:28:24;11.00;;;7.05;;
75356;SDS011;63946;51.986;5.930;2023-05-10T10:34:07;10.35;;;6.65;;
75356;SDS011;63946;51.986;5.930;2023-05-10T10:36:40;11.63;;;7.15;;
75356;SDS011;63946;51.986;5.930;2023-05-10T10:39:14;11.00;;;7.82;;
75356;SDS011;63946;51.986;5.930;2023-05-10T10:52:35;11.25;;;6.97;;
75356;SDS011;63946;51.986;5.930;2023-05-10T10:55:06;12.05;;;6.82;;
75356;SDS011;63946;51.986;5.930;2023-05-10T10:57:49;11.90;;;7.30;;
75356;SDS011;63946;51.986;5.930;2023-05-10T11:00:32;11.30;;;6.57;;
75356;SDS011;63946;51.986;5.930;2023-05-10T11:03:08;9.20;;;6.43;;
75356;SDS011;63946;51.986;5.930;2023-05-10T11:05:46;9.90;;;6.32;;
75356;SDS011;63946;51.986;5.930;2023-05-10T11:08:28;8.70;;;6.00;;
75356;SDS011;63946;51.986;5.930;2023-05-10T11:16:13;10.82;;;7.53;;
75356;SDS011;63946;51.986;5.930;2023-05-10T11:21:27;9.70;;;6.53;;
75356;SDS011;63946;51.986;5.930;2023-05-10T11:23:58;11.52;;;6.68;;
75356;SDS011;63946;51.986;5.930;2023-05-10T11:26:32;9.30;;;6.03;;
75356;SDS011;63946;51.986;5.930;2023-05-10T11:29:02;11.60;;;7.10;;
75356;SDS011;63946;51.986;5.930;2023-05-10T11:31:31;8.98;;;6.25;;
75356;SDS011;63946;51.986;5.930;2023-05-10T11:34:01;8.30;;;5.50;;
75356;SDS011;63946;51.986;5.930;2023-05-10T11:36:33;9.65;;;5.78;;
75356;SDS011;63946;51.986;5.930;2023-05-10T11:39:03;9.77;;;6.15;;
75356;SDS011;63946;51.986;5.930;2023-05-10T11:41:33;8.63;;;5.60;;
75356;SDS011;63946;51.986;5.930;2023-05-10T11:44:01;9.45;;;6.20;;
75356;SDS011;63946;51.986;5.930;2023-05-10T11:46:30;11.32;;;6.40;;
75356;SDS011;63946;51.986;5.930;2023-05-10T11:49:00;7.63;;;5.68;;
75356;SDS011;63946;51.986;5.930;2023-05-10T11:51:32;9.00;;;5.97;;
75356;SDS011;63946;51.986;5.930;2023-05-10T11:54:05;7.80;;;5.32;;
75356;SDS011;63946;51.986;5.930;2023-05-10T11:56:37;8.90;;;5.57;;
75356;SDS011;63946;51.986;5.930;2023-05-10T11:59:07;8.40;;;5.53;;
75356;SDS011;63946;51.986;5.930;2023-05-10T12:01:39;7.93;;;5.45;;
75356;SDS011;63946;51.986;5.930;2023-05-10T12:04:07;9.05;;;6.05;;
75356;SDS011;63946;51.986;5.930;2023-05-10T12:06:37;9.02;;;6.10;;
75356;SDS011;63946;51.986;5.930;2023-05-10T12:09:08;8.63;;;5.75;;
75356;SDS011;63946;51.986;5.930;2023-05-10T12:11:38;9.88;;;6.15;;
75356;SDS011;63946;51.986;5.930;2023-05-10T12:14:08;10.25;;;6.47;;
75356;SDS011;63946;51.986;5.930;2023-05-10T12:16:37;10.82;;;6.63;;
75356;SDS011;63946;51.986;5.930;2023-05-10T12:19:06;9.60;;;5.85;;
75356;SDS011;63946;51.986;5.930;2023-05-10T12:21:38;10.57;;;6.47;;
75356;SDS011;63946;51.986;5.930;2023-05-10T12:24:07;8.73;;;6.00;;
75356;SDS011;63946;51.986;5.930;2023-05-10T12:26:36;7.93;;;5.85;;
75356;SDS011;63946;51.986;5.930;2023-05-10T12:29:15;9.73;;;6.68;;
75356;SDS011;63946;51.986;5.930;2023-05-10T12:31:55;9.52;;;6.50;;
75356;SDS011;63946;51.986;5.930;2023-05-10T12:34:32;8.00;;;5.55;;
75356;SDS011;63946;51.986;5.930;2023-05-10T12:37:04;7.60;;;5.85;;
75356;SDS011;63946;51.986;5.930;2023-05-10T12:39:41;8.32;;;5.53;;
75356;SDS011;63946;51.986;5.930;2023-05-10T12:42:11;7.10;;;4.60;;
75356;SDS011;63946;51.986;5.930;2023-05-10T12:44:40;8.35;;;5.32;;
75356;SDS011;63946;51.986;5.930;2023-05-10T12:47:09;6.90;;;5.25;;
75356;SDS011;63946;51.986;5.930;2023-05-10T12:49:39;7.15;;;5.00;;
75356;SDS011;63946;51.986;5.930;2023-05-10T12:52:08;7.95;;;4.70;;
75356;SDS011;63946;51.986;5.930;2023-05-10T12:54:36;7.60;;;4.75;;
75356;SDS011;63946;51.986;5.930;2023-05-10T12:57:05;6.43;;;4.72;;
75356;SDS011;63946;51.986;5.930;2023-05-10T12:59:34;7.43;;;4.07;;
75356;SDS011;63946;51.986;5.930;2023-05-10T13:02:06;7.28;;;4.50;;
75356;SDS011;63946;51.986;5.930;2023-05-10T13:04:35;5.63;;;4.22;;
75356;SDS011;63946;51.986;5.930;2023-05-10T13:07:05;6.25;;;4.32;;
75356;SDS011;63946;51.986;5.930;2023-05-10T13:09:35;7.53;;;4.80;;
75356;SDS011;63946;51.986;5.930;2023-05-10T13:12:06;4.88;;;3.45;;
75356;SDS011;63946;51.986;5.930;2023-05-10T13:14:34;7.82;;;3.95;;
75356;SDS011;63946;51.986;5.930;2023-05-10T13:17:05;8.18;;;4.32;;
75356;SDS011;63946;51.986;5.930;2023-05-10T13:19:41;7.93;;;4.25;;
75356;SDS011;63946;51.986;5.930;2023-05-10T13:22:12;6.38;;;4.95;;
75356;SDS011;63946;51.986;5.930;2023-05-10T13:24:41;6.20;;;3.55;;
75356;SDS011;63946;51.986;5.930;2023-05-10T13:27:10;6.00;;;3.83;;
75356;SDS011;63946;51.986;5.930;2023-05-10T13:29:41;5.25;;;3.42;;
75356;SDS011;63946;51.986;5.930;2023-05-10T13:32:12;8.30;;;4.93;;
75356;SDS011;63946;51.986;5.930;2023-05-10T13:34:41;6.95;;;4.18;;
75356;SDS011;63946;51.986;5.930;2023-05-10T13:37:10;5.90;;;4.40;;
75356;SDS011;63946;51.986;5.930;2023-05-10T13:39:39;6.97;;;4.50;;
75356;SDS011;63946;51.986;5.930;2023-05-10T13:42:11;8.65;;;5.20;;
75356;SDS011;63946;51.986;5.930;2023-05-10T13:44:40;7.00;;;4.40;;
75356;SDS011;63946;51.986;5.930;2023-05-10T13:47:08;7.50;;;4.05;;
75356;SDS011;63946;51.986;5.930;2023-05-10T13:49:37;12.63;;;4.95;;
75356;SDS011;63946;51.986;5.930;2023-05-10T13:52:09;6.40;;;4.18;;
75356;SDS011;63946;51.986;5.930;2023-05-10T13:54:40;6.25;;;4.07;;
75356;SDS011;63946;51.986;5.930;2023-05-10T13:57:12;6.60;;;4.40;;
75356;SDS011;63946;51.986;5.930;2023-05-10T13:59:42;8.93;;;5.35;;
75356;SDS011;63946;51.986;5.930;2023-05-10T14:02:11;8.90;;;6.97;;
75356;SDS011;63946;51.986;5.930;2023-05-10T14:04:42;8.60;;;6.63;;
75356;SDS011;63946;51.986;5.930;2023-05-10T14:07:11;8.02;;;6.90;;
75356;SDS011;63946;51.986;5.930;2023-05-10T14:09:40;7.78;;;6.32;;
75356;SDS011;63946;51.986;5.930;2023-05-10T14:12:09;8.15;;;7.32;;
75356;SDS011;63946;51.986;5.930;2023-05-10T14:14:37;8.10;;;6.95;;
75356;SDS011;63946;51.986;5.930;2023-05-10T14:17:06;8.93;;;7.28;;
75356;SDS011;63946;51.986;5.930;2023-05-10T14:19:41;9.25;;;6.28;;
75356;SDS011;63946;51.986;5.930;2023-05-10T14:22:09;8.98;;;6.70;;
75356;SDS011;63946;51.986;5.930;2023-05-10T14:24:38;12.15;;;7.75;;
75356;SDS011;63946;51.986;5.930;2023-05-10T14:27:08;7.22;;;6.53;;
75356;SDS011;63946;51.986;5.930;2023-05-10T14:29:37;7.72;;;6.13;;
75356;SDS011;63946;51.986;5.930;2023-05-10T14:32:09;9.20;;;7.38;;
75356;SDS011;63946;51.986;5.930;2023-05-10T14:34:40;10.05;;;7.32;;
75356;SDS011;63946;51.986;5.930;2023-05-10T14:37:10;8.43;;;6.50;;
75356;SDS011;63946;51.986;5.930;2023-05-10T14:39:43;9.10;;;6.88;;
75356;SDS011;63946;51.986;5.930;2023-05-10T14:42:12;8.88;;;6.25;;
75356;SDS011;63946;51.986;5.930;2023-05-10T14:44:41;9.88;;;7.00;;
75356;SDS011;63946;51.986;5.930;2023-05-10T14:47:09;7.70;;;6.53;;
75356;SDS011;63946;51.986;5.930;2023-05-10T14:49:41;6.15;;;4.85;;
75356;SDS011;63946;51.986;5.930;2023-05-10T14:52:12;6.50;;;4.95;;
75356;SDS011;63946;51.986;5.930;2023-05-10T14:54:41;6.47;;;4.28;;
75356;SDS011;63946;51.986;5.930;2023-05-10T14:57:13;6.43;;;4.07;;
75356;SDS011;63946;51.986;5.930;2023-05-10T14:59:44;4.63;;;3.10;;
75356;SDS011;63946;51.986;5.930;2023-05-10T15:02:13;3.70;;;3.20;;
75356;SDS011;63946;51.986;5.930;2023-05-10T15:04:42;4.13;;;3.10;;
75356;SDS011;63946;51.986;5.930;2023-05-10T15:07:11;4.57;;;3.70;;
75356;SDS011;63946;51.986;5.930;2023-05-10T15:12:13;5.28;;;3.97;;
75356;SDS011;63946;51.986;5.930;2023-05-10T15:14:41;4.82;;;3.40;;
75356;SDS011;63946;51.986;5.930;2023-05-10T15:17:10;5.00;;;3.20;;
75356;SDS011;63946;51.986;5.930;2023-05-10T15:19:39;4.78;;;3.13;;
75356;SDS011;63946;51.986;5.930;2023-05-10T15:22:08;3.05;;;2.72;;
75356;SDS011;63946;51.986;5.930;2023-05-10T15:24:37;4.00;;;2.80;;
75356;SDS011;63946;51.986;5.930;2023-05-10T15:27:05;4.25;;;2.50;;
75356;SDS011;63946;51.986;5.930;2023-05-10T15:29:36;3.00;;;2.60;;
75356;SDS011;63946;51.986;5.930;2023-05-10T15:32:04;4.20;;;2.50;;
75356;SDS011;63946;51.986;5.930;2023-05-10T15:34:33;2.97;;;2.13;;
75356;SDS011;63946;51.986;5.930;2023-05-10T15:37:02;2.95;;;1.90;;
75356;SDS011;63946;51.986;5.930;2023-05-10T15:39:31;3.40;;;2.13;;
75356;SDS011;63946;51.986;5.930;2023-05-10T15:41:59;2.67;;;2.03;;
75356;SDS011;63946;51.986;5.930;2023-05-10T15:44:33;3.05;;;1.88;;
75356;SDS011;63946;51.986;5.930;2023-05-10T15:47:06;2.58;;;2.00;;
75356;SDS011;63946;51.986;5.930;2023-05-10T15:49:35;3.92;;;1.70;;
75356;SDS011;63946;51.986;5.930;2023-05-10T15:52:04;3.90;;;1.92;;
75356;SDS011;63946;51.986;5.930;2023-05-10T15:54:34;2.80;;;1.70;;
75356;SDS011;63946;51.986;5.930;2023-05-10T15:57:03;2.95;;;1.80;;
75356;SDS011;63946;51.986;5.930;2023-05-10T15:59:32;3.97;;;1.80;;
75356;SDS011;63946;51.986;5.930;2023-05-10T16:02:02;2.08;;;1.48;;
75356;SDS011;63946;51.986;5.930;2023-05-10T16:04:33;2.83;;;1.55;;
75356;SDS011;63946;51.986;5.930;2023-05-10T16:07:02;3.92;;;1.88;;
75356;SDS011;63946;51.986;5.930;2023-05-10T16:09:32;2.47;;;1.70;;
75356;SDS011;63946;51.986;5.930;2023-05-10T16:12:01;2.95;;;1.55;;
75356;SDS011;63946;51.986;5.930;2023-05-10T16:14:29;2.53;;;1.50;;
75356;SDS011;63946;51.986;5.930;2023-05-10T16:17:01;3.03;;;1.65;;
75356;SDS011;63946;51.986;5.930;2023-05-10T16:19:30;2.80;;;1.85;;
75356;SDS011;63946;51.986;5.930;2023-05-10T16:21:59;2.75;;;1.63;;
75356;SDS011;63946;51.986;5.930;2023-05-10T16:24:28;3.72;;;1.70;;
75356;SDS011;63946;51.986;5.930;2023-05-10T16:26:57;2.72;;;1.65;;
75356;SDS011;63946;51.986;5.930;2023-05-10T16:29:26;2.63;;;1.80;;
75356;SDS011;63946;51.986;5.930;2023-05-10T16:31:55;2.53;;;1.77;;
75356;SDS011;63946;51.986;5.930;2023-05-10T16:34:24;3.78;;;2.00;;
75356;SDS011;63946;51.986;5.930;2023-05-10T16:36:53;3.20;;;1.83;;
75356;SDS011;63946;51.986;5.930;2023-05-10T16:39:22;2.65;;;1.67;;
75356;SDS011;63946;51.986;5.930;2023-05-10T16:41:51;3.00;;;2.00;;
75356;SDS011;63946;51.986;5.930;2023-05-10T16:44:20;2.92;;;1.80;;
75356;SDS011;63946;51.986;5.930;2023-05-10T16:46:48;3.13;;;1.85;;
75356;SDS011;63946;51.986;5.930;2023-05-10T16:49:21;4.50;;;1.67;;
75356;SDS011;63946;51.986;5.930;2023-05-10T16:51:51;3.50;;;1.73;;
75356;SDS011;63946;51.986;5.930;2023-05-10T16:54:27;3.50;;;1.75;;
75356;SDS011;63946;51.986;5.930;2023-05-10T16:56:56;2.50;;;1.52;;
75356;SDS011;63946;51.986;5.930;2023-05-10T16:59:25;5.28;;;2.00;;
75356;SDS011;63946;51.986;5.930;2023-05-10T17:01:59;4.18;;;1.77;;
75356;SDS011;63946;51.986;5.930;2023-05-10T17:04:28;2.78;;;1.77;;
75356;SDS011;63946;51.986;5.930;2023-05-10T17:07:00;2.85;;;1.38;;
75356;SDS011;63946;51.986;5.930;2023-05-10T17:09:33;3.63;;;1.83;;
75356;SDS011;63946;51.986;5.930;2023-05-10T17:12:07;3.47;;;1.73;;
75356;SDS011;63946;51.986;5.930;2023-05-10T17:14:36;2.08;;;1.73;;
75356;SDS011;63946;51.986;5.930;2023-05-10T17:17:05;2.63;;;1.67;;
75356;SDS011;63946;51.986;5.930;2023-05-10T17:19:34;3.83;;;1.67;;
75356;SDS011;63946;51.986;5.930;2023-05-10T17:22:03;3.17;;;1.60;;
75356;SDS011;63946;51.986;5.930;2023-05-10T17:24:32;3.53;;;1.58;;
75356;SDS011;63946;51.986;5.930;2023-05-10T17:27:01;2.40;;;1.48;;
75356;SDS011;63946;51.986;5.930;2023-05-10T17:29:30;4.82;;;3.15;;
75356;SDS011;63946;51.986;5.930;2023-05-10T17:31:59;4.18;;;2.85;;
75356;SDS011;63946;51.986;5.930;2023-05-10T17:34:28;3.30;;;2.30;;
75356;SDS011;63946;51.986;5.930;2023-05-10T17:36:56;3.38;;;1.98;;
75356;SDS011;63946;51.986;5.930;2023-05-10T17:39:25;3.22;;;1.90;;
75356;SDS011;63946;51.986;5.930;2023-05-10T17:41:59;2.45;;;1.65;;
75356;SDS011;63946;51.986;5.930;2023-05-10T17:44:30;3.90;;;2.15;;
75356;SDS011;63946;51.986;5.930;2023-05-10T17:47:01;3.10;;;2.00;;
75356;SDS011;63946;51.986;5.930;2023-05-10T17:49:30;3.92;;;2.17;;
75356;SDS011;63946;51.986;5.930;2023-05-10T17:52:00;2.72;;;1.85;;
75356;SDS011;63946;51.986;5.930;2023-05-10T17:54:31;4.20;;;2.40;;
75356;SDS011;63946;51.986;5.930;2023-05-10T17:57:00;2.70;;;1.83;;
75356;SDS011;63946;51.986;5.930;2023-05-10T17:59:29;3.80;;;1.77;;
75356;SDS011;63946;51.986;5.930;2023-05-10T18:01:57;4.28;;;2.42;;
75356;SDS011;63946;51.986;5.930;2023-05-10T18:04:27;2.65;;;1.90;;
75356;SDS011;63946;51.986;5.930;2023-05-10T18:06:57;3.75;;;2.38;;
75356;SDS011;63946;51.986;5.930;2023-05-10T18:09:28;4.18;;;2.13;;
75356;SDS011;63946;51.986;5.930;2023-05-10T18:12:00;3.08;;;2.20;;
75356;SDS011;63946;51.986;5.930;2023-05-10T18:14:30;3.22;;;2.10;;
75356;SDS011;63946;51.986;5.930;2023-05-10T18:17:01;3.95;;;2.00;;
75356;SDS011;63946;51.986;5.930;2023-05-10T18:19:32;5.28;;;2.78;;
75356;SDS011;63946;51.986;5.930;2023-05-10T18:22:01;3.10;;;2.40;;
75356;SDS011;63946;51.986;5.930;2023-05-10T18:24:33;3.72;;;2.97;;
75356;SDS011;63946;51.986;5.930;2023-05-10T18:27:01;6.55;;;2.78;;
75356;SDS011;63946;51.986;5.930;2023-05-10T18:29:31;5.03;;;3.22;;
75356;SDS011;63946;51.986;5.930;2023-05-10T18:32:00;5.88;;;3.67;;
75356;SDS011;63946;51.986;5.930;2023-05-10T18:34:29;3.63;;;2.67;;
75356;SDS011;63946;51.986;5.930;2023-05-10T18:36:58;5.50;;;3.33;;
75356;SDS011;63946;51.986;5.930;2023-05-10T18:39:37;5.20;;;2.63;;
75356;SDS011;63946;51.986;5.930;2023-05-10T18:42:06;6.47;;;3.17;;
75356;SDS011;63946;51.986;5.930;2023-05-10T18:44:36;4.97;;;3.75;;
75356;SDS011;63946;51.986;5.930;2023-05-10T18:47:04;4.55;;;3.25;;
75356;SDS011;63946;51.986;5.930;2023-05-10T18:49:36;6.93;;;3.38;;
75356;SDS011;63946;51.986;5.930;2023-05-10T18:52:05;6.05;;;3.90;;
75356;SDS011;63946;51.986;5.930;2023-05-10T18:54:34;6.88;;;3.58;;
75356;SDS011;63946;51.986;5.930;2023-05-10T18:57:03;6.00;;;4.25;;
75356;SDS011;63946;51.986;5.930;2023-05-10T18:59:32;4.88;;;3.53;;
75356;SDS011;63946;51.986;5.930;2023-05-10T19:02:01;6.97;;;4.35;;
75356;SDS011;63946;51.986;5.930;2023-05-10T19:04:30;7.20;;;3.60;;
75356;SDS011;63946;51.986;5.930;2023-05-10T19:07:00;7.45;;;4.22;;
75356;SDS011;63946;51.986;5.930;2023-05-10T19:09:30;6.85;;;3.95;;
75356;SDS011;63946;51.986;5.930;2023-05-10T19:11:59;7.28;;;4.03;;
75356;SDS011;63946;51.986;5.930;2023-05-10T19:14:30;8.38;;;4.20;;
75356;SDS011;63946;51.986;5.930;2023-05-10T19:17:04;6.90;;;4.22;;
75356;SDS011;63946;51.986;5.930;2023-05-10T19:19:32;6.05;;;3.78;;
75356;SDS011;63946;51.986;5.930;2023-05-10T19:22:01;6.38;;;4.18;;
75356;SDS011;63946;51.986;5.930;2023-05-10T19:24:31;6.85;;;3.88;;
75356;SDS011;63946;51.986;5.930;2023-05-10T19:27:00;7.78;;;4.10;;
75356;SDS011;63946;51.986;5.930;2023-05-10T19:29:29;5.13;;;3.85;;
75356;SDS011;63946;51.986;5.930;2023-05-10T19:32:01;7.97;;;4.07;;
75356;SDS011;63946;51.986;5.930;2023-05-10T19:34:30;5.38;;;3.50;;
75356;SDS011;63946;51.986;5.930;2023-05-10T19:36:59;6.50;;;4.07;;
75356;SDS011;63946;51.986;5.930;2023-05-10T19:39:28;6.30;;;4.00;;
75356;SDS011;63946;51.986;5.930;2023-05-10T19:41:57;8.52;;;4.13;;
75356;SDS011;63946;51.986;5.930;2023-05-10T19:44:26;5.10;;;3.40;;
75356;SDS011;63946;51.986;5.930;2023-05-10T19:46:55;6.32;;;4.20;;
75356;SDS011;63946;51.986;5.930;2023-05-10T19:49:25;5.35;;;3.40;;
75356;SDS011;63946;51.986;5.930;2023-05-10T19:51:54;6.13;;;3.85;;
75356;SDS011;63946;51.986;5.930;2023-05-10T19:54:23;8.10;;;4.07;;
75356;SDS011;63946;51.986;5.930;2023-05-10T19:56:51;5.38;;;3.88;;
75356;SDS011;63946;51.986;5.930;2023-05-10T19:59:20;7.15;;;4.25;;
75356;SDS011;63946;51.986;5.930;2023-05-10T20:01:52;6.57;;;4.45;;
75356;SDS011;63946;51.986;5.930;2023-05-10T20:04:21;7.18;;;4.63;;
75356;SDS011;63946;51.986;5.930;2023-05-10T20:06:50;7.95;;;4.80;;